createdAt,value
2022-10-02T00:00:02.746Z,7.10
2022-10-02T00:03:02.380Z,6.90
2022-10-02T00:05:58.497Z,7.20
2022-10-02T00:08:39.339Z,7.10
2022-10-02T00:11:13.634Z,7.30
2022-10-02T00:13:57.776Z,6.60
2022-10-02T00:16:52.348Z,6.20
2022-10-02T00:19:21.102Z,5.60
2022-10-02T00:22:06.853Z,5.00
2022-10-02T00:24:46.408Z,5.10
2022-10-02T00:27:26.059Z,5.40
2022-10-02T00:29:59.971Z,4.80
2022-10-02T00:32:41.573Z,6.80
2022-10-02T00:36:02.246Z,4.90
2022-10-02T00:38:49.791Z,5.20
2022-10-02T00:42:07.618Z,5.60
2022-10-02T00:45:21.839Z,6.50
2022-10-02T00:48:28.142Z,5.10
2022-10-02T00:51:34.367Z,7.20
2022-10-02T00:54:48.452Z,5.70
2022-10-02T00:57:54.313Z,6.20
2022-10-02T01:00:23.214Z,10.60
2022-10-02T01:03:13.989Z,5.70
2022-10-02T01:05:41.974Z,6.80
2022-10-02T01:08:09.927Z,6.70
2022-10-02T01:10:39.841Z,6.40
2022-10-02T01:13:08.185Z,5.60
2022-10-02T01:15:51.243Z,5.40
2022-10-02T01:18:19.169Z,5.60
2022-10-02T01:20:51.830Z,5.00
2022-10-02T01:23:31.025Z,6.70
2022-10-02T01:25:59.513Z,7.40
2022-10-02T01:28:27.989Z,8.50
2022-10-02T01:31:07.706Z,6.40
2022-10-02T01:33:41.365Z,4.90
2022-10-02T01:36:14.967Z,6.80
2022-10-02T01:38:44.513Z,7.70
2022-10-02T01:41:12.338Z,6.40
2022-10-02T01:44:01.612Z,5.10
2022-10-02T01:46:41.498Z,6.90
2022-10-02T01:49:17.880Z,4.40
2022-10-02T01:52:33.202Z,5.70
2022-10-02T01:55:31.090Z,4.40
2022-10-02T01:58:33.665Z,4.90
2022-10-02T02:01:23.404Z,5.70
2022-10-02T02:04:23.754Z,4.60
2022-10-02T02:07:10.940Z,4.40
2022-10-02T02:09:51.076Z,5.40
2022-10-02T02:12:28.083Z,5.80
2022-10-02T02:15:26.366Z,4.90
2022-10-02T02:18:14.103Z,6.30
2022-10-02T02:20:50.397Z,4.70
2022-10-02T02:23:25.857Z,6.10
2022-10-02T02:26:05.772Z,6.50
2022-10-02T02:28:36.357Z,5.40
2022-10-02T02:31:06.548Z,5.70
2022-10-02T02:33:52.097Z,5.60
2022-10-02T02:36:24.941Z,6.20
2022-10-02T02:39:01.324Z,5.60
2022-10-02T02:41:38.847Z,5.20
2022-10-02T02:44:13.347Z,5.30
2022-10-02T02:47:04.784Z,3.90
2022-10-02T02:49:45.044Z,7.10
2022-10-02T02:52:24.886Z,6.20
2022-10-02T02:55:03.495Z,5.70
2022-10-02T02:57:44.026Z,6.30
2022-10-02T03:00:15.988Z,4.70
2022-10-02T03:02:43.617Z,5.00
2022-10-02T03:05:19.303Z,6.20
2022-10-02T03:07:54.874Z,7.20
2022-10-02T03:10:31.375Z,8.10
2022-10-02T03:13:31.688Z,6.50
2022-10-02T03:16:41.160Z,7.00
2022-10-02T03:19:39.567Z,6.90
2022-10-02T03:22:20.148Z,6.20
2022-10-02T03:24:59.722Z,4.20
2022-10-02T03:27:41.334Z,5.70
2022-10-02T03:30:13.036Z,6.10
2022-10-02T03:32:46.636Z,8.20
2022-10-02T03:35:15.510Z,5.60
2022-10-02T03:37:49.877Z,5.20
2022-10-02T03:40:17.721Z,4.30
2022-10-02T03:42:45.245Z,6.50
2022-10-02T03:45:27.243Z,7.70
2022-10-02T03:48:00.741Z,6.00
2022-10-02T03:50:30.743Z,6.70
2022-10-02T03:53:00.539Z,5.70
2022-10-02T03:55:37.611Z,7.70
2022-10-02T03:58:16.876Z,5.40
2022-10-02T04:01:03.130Z,6.00
2022-10-02T04:03:40.399Z,5.10
2022-10-02T04:06:35.510Z,5.00
2022-10-02T04:09:18.606Z,5.20
2022-10-02T04:12:13.471Z,6.20
2022-10-02T04:14:54.261Z,3.90
2022-10-02T04:17:37.398Z,7.40
2022-10-02T04:20:20.988Z,6.40
2022-10-02T04:22:58.989Z,7.30
2022-10-02T04:25:36.942Z,6.90
2022-10-02T04:28:17.525Z,8.10
2022-10-02T04:30:45.571Z,8.60
2022-10-02T04:33:22.506Z,5.40
2022-10-02T04:36:12.739Z,6.70
2022-10-02T04:39:03.821Z,6.60
2022-10-02T04:42:15.608Z,8.30
2022-10-02T04:45:14.941Z,9.60
2022-10-02T04:48:14.465Z,9.60
2022-10-02T04:51:12.435Z,10.30
2022-10-02T04:54:18.980Z,8.70
2022-10-02T04:57:37.177Z,7.60
2022-10-02T05:00:22.202Z,7.30
2022-10-02T05:03:30.171Z,4.70
2022-10-02T05:07:11.029Z,5.40
2022-10-02T05:10:04.987Z,8.00
2022-10-02T05:12:58.282Z,6.80
2022-10-02T05:16:12.277Z,4.90
2022-10-02T05:19:27.515Z,5.20
2022-10-02T05:22:23.163Z,6.30
2022-10-02T05:25:21.991Z,5.90
2022-10-02T05:28:21.386Z,5.60
2022-10-02T05:31:18.102Z,8.80
2022-10-02T05:34:03.490Z,10.10
2022-10-02T05:36:55.653Z,11.20
2022-10-02T05:39:32.949Z,5.00
2022-10-02T05:42:13.752Z,10.30
2022-10-02T05:45:26.151Z,6.30
2022-10-02T05:48:04.924Z,7.20
2022-10-02T05:50:36.541Z,10.20
2022-10-02T05:53:38.798Z,9.00
2022-10-02T05:56:32.757Z,9.00
2022-10-02T05:59:14.041Z,8.00
2022-10-02T06:01:47.327Z,7.50
2022-10-02T06:04:27.505Z,8.50
2022-10-02T06:07:01.468Z,10.10
2022-10-02T06:10:03.486Z,10.20
2022-10-02T06:12:41.026Z,9.80
2022-10-02T06:15:26.482Z,10.90
2022-10-02T06:18:04.336Z,9.60
2022-10-02T06:20:46.241Z,9.80
2022-10-02T06:23:22.450Z,11.50
2022-10-02T06:25:56.726Z,8.50
2022-10-02T06:28:56.108Z,9.80
2022-10-02T06:31:40.847Z,6.80
2022-10-02T06:34:14.488Z,6.60
2022-10-02T06:37:30.413Z,7.00
2022-10-02T06:40:31.052Z,7.00
2022-10-02T06:43:17.135Z,6.40
2022-10-02T06:46:11.065Z,6.40
2022-10-02T06:49:22.338Z,6.10
2022-10-02T06:52:27.644Z,6.10
2022-10-02T06:55:21.482Z,7.80
2022-10-02T06:58:30.171Z,6.20
2022-10-02T07:01:24.065Z,6.30
2022-10-02T07:04:17.424Z,8.50
2022-10-02T07:07:04.694Z,7.70
2022-10-02T07:09:46.919Z,8.60
2022-10-02T07:13:02.960Z,5.90
2022-10-02T07:15:47.062Z,8.80
2022-10-02T07:18:34.381Z,7.10
2022-10-02T07:21:24.188Z,7.10
2022-10-02T07:24:19.669Z,6.50
2022-10-02T07:27:09.218Z,8.20
2022-10-02T07:30:08.962Z,6.30
2022-10-02T07:32:42.481Z,5.40
2022-10-02T07:35:28.277Z,9.80
2022-10-02T07:38:24.492Z,6.80
2022-10-02T07:41:03.893Z,7.20
2022-10-02T07:44:33.698Z,5.80
2022-10-02T07:47:13.388Z,9.30
2022-10-02T07:50:21.051Z,9.20
2022-10-02T07:53:16.663Z,7.50
2022-10-02T07:55:52.211Z,11.00
2022-10-02T07:58:55.016Z,6.80
2022-10-02T08:01:32.292Z,9.90
2022-10-02T08:04:07.118Z,8.90
2022-10-02T08:06:36.767Z,10.90
2022-10-02T08:09:12.342Z,6.70
2022-10-02T08:12:02.065Z,10.60
2022-10-02T08:14:42.501Z,7.10
2022-10-02T08:17:46.086Z,5.30
2022-10-02T08:20:34.431Z,8.90
2022-10-02T08:23:34.091Z,10.30
2022-10-02T08:26:14.457Z,7.60
2022-10-02T08:29:05.717Z,11.00
2022-10-02T08:31:33.722Z,8.90
2022-10-02T08:34:21.078Z,11.80
2022-10-02T08:37:25.568Z,9.50
2022-10-02T08:41:06.696Z,8.50
2022-10-02T08:44:36.008Z,7.80
2022-10-02T08:47:54.565Z,7.50
2022-10-02T08:50:52.021Z,8.00
2022-10-02T08:54:23.819Z,9.80
2022-10-02T08:57:28.242Z,11.10
2022-10-02T09:00:05.330Z,10.30
2022-10-02T09:03:23.143Z,9.80
2022-10-02T09:06:38.602Z,12.10
2022-10-02T09:09:27.536Z,7.60
2022-10-02T09:12:25.748Z,6.60
2022-10-02T09:15:23.903Z,16.40
2022-10-02T09:18:03.284Z,13.00
2022-10-02T09:20:56.790Z,11.70
2022-10-02T09:23:58.729Z,11.00
2022-10-02T09:27:44.786Z,6.90
2022-10-02T09:30:31.685Z,8.70
2022-10-02T09:33:57.800Z,8.30
2022-10-02T09:37:08.700Z,10.80
2022-10-02T09:40:26.785Z,11.20
2022-10-02T09:43:21.547Z,10.70
2022-10-02T09:46:27.390Z,11.80
2022-10-02T09:49:34.839Z,8.90
2022-10-02T09:52:25.261Z,6.50
2022-10-02T09:55:30.117Z,5.70
2022-10-02T09:58:37.710Z,7.90
2022-10-02T10:01:57.871Z,5.00
2022-10-02T10:05:04.403Z,6.70
2022-10-02T10:07:48.004Z,8.70
2022-10-02T10:10:34.106Z,7.80
2022-10-02T10:13:18.028Z,9.10
2022-10-02T10:16:38.563Z,9.10
2022-10-02T10:20:06.276Z,7.70
2022-10-02T10:22:57.764Z,9.50
2022-10-02T10:25:50.231Z,7.90
2022-10-02T10:28:27.633Z,7.60
2022-10-02T10:31:17.042Z,10.50
2022-10-02T10:34:46.106Z,8.30
2022-10-02T10:38:17.178Z,8.70
2022-10-02T10:41:37.662Z,7.10
2022-10-02T10:44:31.875Z,7.30
2022-10-02T10:47:21.021Z,8.30
2022-10-02T10:50:19.547Z,7.10
2022-10-02T10:53:40.928Z,6.70
2022-10-02T10:56:37.413Z,9.00
2022-10-02T11:00:03.401Z,8.60
2022-10-02T11:03:24.633Z,4.70
2022-10-02T11:06:31.444Z,5.90
2022-10-02T11:09:40.705Z,6.40
2022-10-02T11:12:44.795Z,4.70
2022-10-02T11:15:49.429Z,6.70
2022-10-02T11:18:51.947Z,5.60
2022-10-02T11:21:40.092Z,6.60
2022-10-02T11:24:50.873Z,10.00
2022-10-02T11:27:46.595Z,7.00
2022-10-02T11:30:25.511Z,5.50
2022-10-02T11:33:53.830Z,7.10
2022-10-02T11:36:41.633Z,7.40
2022-10-02T11:39:48.166Z,8.60
2022-10-02T11:43:02.806Z,10.20
2022-10-02T11:45:44.473Z,9.00
2022-10-02T11:48:26.509Z,9.60
2022-10-02T11:51:03.014Z,9.90
2022-10-02T11:54:38.756Z,5.30
2022-10-02T11:57:20.595Z,6.30
2022-10-02T12:00:04.477Z,10.50
2022-10-02T12:03:03.243Z,7.30
2022-10-02T12:05:56.719Z,11.10
2022-10-02T12:08:56.455Z,13.50
2022-10-02T12:12:06.997Z,9.00
2022-10-02T12:15:38.393Z,6.10
2022-10-02T12:18:38.615Z,6.40
2022-10-02T12:21:55.617Z,9.00
2022-10-02T12:25:19.158Z,7.10
2022-10-02T12:28:13.269Z,5.50
2022-10-02T12:31:00.376Z,6.90
2022-10-02T12:34:27.236Z,5.50
2022-10-02T12:37:31.662Z,7.80
2022-10-02T12:40:15.320Z,7.20
2022-10-02T12:43:20.787Z,7.80
2022-10-02T12:46:17.385Z,6.90
2022-10-02T12:49:15.890Z,6.50
2022-10-02T12:52:14.249Z,4.70
2022-10-02T12:55:08.480Z,4.50
2022-10-02T12:58:02.340Z,8.30
2022-10-02T13:01:32.605Z,6.00
2022-10-02T13:04:22.368Z,9.00
2022-10-02T13:07:32.924Z,4.70
2022-10-02T13:10:09.869Z,6.70
2022-10-02T13:13:38.360Z,5.40
2022-10-02T13:16:46.754Z,10.00
2022-10-02T13:19:45.848Z,4.70
2022-10-02T13:22:31.414Z,6.00
2022-10-02T13:25:21.178Z,6.50
2022-10-02T13:28:18.011Z,6.00
2022-10-02T13:31:03.954Z,7.60
2022-10-02T13:34:19.340Z,9.10
2022-10-02T13:37:21.788Z,8.60
2022-10-02T13:40:15.647Z,11.30
2022-10-02T13:43:25.989Z,8.10
2022-10-02T13:46:21.207Z,10.50
2022-10-02T13:49:28.485Z,13.80
2022-10-02T13:52:39.179Z,18.90
2022-10-02T13:55:29.376Z,21.10
2022-10-02T13:58:26.668Z,20.30
2022-10-02T14:01:12.284Z,18.20
2022-10-02T14:04:01.621Z,17.40
2022-10-02T14:07:19.077Z,13.20
2022-10-02T14:10:05.985Z,11.20
2022-10-02T14:13:14.931Z,11.60
2022-10-02T14:15:59.411Z,13.80
2022-10-02T14:18:55.241Z,13.00
2022-10-02T14:21:39.000Z,10.20
2022-10-02T14:24:54.280Z,9.40
2022-10-02T14:28:13.305Z,9.20
2022-10-02T14:31:14.742Z,11.80
2022-10-02T14:34:16.361Z,15.40
2022-10-02T14:37:16.876Z,15.30
2022-10-02T14:39:45.689Z,11.90
2022-10-02T14:43:04.195Z,12.40
2022-10-02T14:46:18.427Z,12.30
2022-10-02T14:49:36.080Z,7.70
2022-10-02T14:52:48.475Z,8.30
2022-10-02T14:55:33.246Z,8.30
2022-10-02T14:58:30.211Z,7.90
2022-10-02T15:01:23.465Z,6.40
2022-10-02T15:04:13.587Z,7.60
2022-10-02T15:06:59.050Z,13.20
2022-10-02T15:10:04.155Z,6.80
2022-10-02T15:12:43.316Z,8.10
2022-10-02T15:15:46.811Z,10.60
2022-10-02T15:18:43.627Z,9.30
2022-10-02T15:21:29.928Z,10.30
2022-10-02T15:23:59.649Z,12.70
2022-10-02T15:27:11.594Z,11.90
2022-10-02T15:30:11.456Z,8.40
2022-10-02T15:33:20.322Z,8.20
2022-10-02T15:36:26.776Z,6.80
2022-10-02T15:39:45.426Z,7.70
2022-10-02T15:42:41.553Z,8.00
2022-10-02T15:45:29.688Z,9.50
2022-10-02T15:48:21.316Z,6.60
2022-10-02T15:50:58.045Z,10.40
2022-10-02T15:53:42.037Z,11.00
2022-10-02T15:57:07.219Z,11.30
2022-10-02T16:00:10.333Z,12.80
2022-10-02T16:03:10.301Z,10.40
2022-10-02T16:05:58.811Z,11.60
2022-10-02T16:08:40.265Z,15.60
2022-10-02T16:11:29.657Z,32.90
2022-10-02T16:14:12.198Z,22.70
2022-10-02T16:17:10.507Z,17.50
2022-10-02T16:20:04.853Z,15.50
2022-10-02T16:22:52.524Z,16.40
2022-10-02T16:26:01.864Z,21.70
2022-10-02T16:29:07.455Z,22.30
2022-10-02T16:32:08.510Z,15.50
2022-10-02T16:35:22.380Z,13.10
2022-10-02T16:38:15.118Z,13.40
2022-10-02T16:40:58.017Z,13.70
2022-10-02T16:44:19.225Z,13.40
2022-10-02T16:47:01.327Z,11.90
2022-10-02T16:49:57.537Z,13.20
2022-10-02T16:52:33.911Z,12.70
2022-10-02T16:55:40.074Z,13.10
2022-10-02T16:58:39.929Z,15.20
2022-10-02T17:01:26.365Z,18.60
2022-10-02T17:03:54.501Z,24.70
2022-10-02T17:06:36.239Z,22.00
2022-10-02T17:09:21.329Z,17.20
2022-10-02T17:12:19.597Z,11.30
2022-10-02T17:15:07.879Z,12.00
2022-10-02T17:18:13.507Z,11.50
2022-10-02T17:20:49.861Z,10.00
2022-10-02T17:23:34.100Z,13.30
2022-10-02T17:26:12.127Z,12.90
2022-10-02T17:29:06.884Z,10.90
2022-10-02T17:31:52.373Z,9.70
2022-10-02T17:34:23.710Z,9.50
2022-10-02T17:37:09.400Z,17.60
2022-10-02T17:39:59.693Z,12.90
2022-10-02T17:42:51.948Z,17.90
2022-10-02T17:45:37.279Z,12.70
2022-10-02T17:48:19.744Z,9.50
2022-10-02T17:51:00.071Z,13.50
2022-10-02T17:54:26.329Z,12.80
2022-10-02T17:57:23.965Z,10.40
2022-10-02T18:00:21.357Z,17.60
2022-10-02T18:03:11.904Z,13.10
2022-10-02T18:06:17.509Z,14.90
2022-10-02T18:09:03.544Z,14.40
2022-10-02T18:11:54.401Z,12.20
2022-10-02T18:15:05.732Z,12.80
2022-10-02T18:17:58.961Z,14.90
2022-10-02T18:20:58.802Z,12.90
2022-10-02T18:24:13.408Z,12.70
2022-10-02T18:27:18.570Z,9.80
2022-10-02T18:30:13.377Z,10.80
2022-10-02T18:33:03.589Z,14.90
2022-10-02T18:36:28.160Z,17.50
2022-10-02T18:39:01.258Z,14.80
2022-10-02T18:41:54.502Z,12.30
2022-10-02T18:44:29.535Z,13.40
2022-10-02T18:47:28.515Z,17.80
2022-10-02T18:50:22.641Z,11.90
2022-10-02T18:52:59.007Z,16.40
2022-10-02T18:55:51.486Z,15.50
2022-10-02T18:58:31.724Z,11.70
2022-10-02T19:00:59.409Z,11.70
2022-10-02T19:03:53.804Z,12.30
2022-10-02T19:06:34.809Z,11.80
2022-10-02T19:09:08.749Z,12.50
2022-10-02T19:12:06.437Z,12.10
2022-10-02T19:14:46.375Z,14.10
2022-10-02T19:17:29.823Z,13.00
2022-10-02T19:19:58.654Z,14.80
2022-10-02T19:22:36.377Z,16.10
2022-10-02T19:25:16.324Z,14.20
2022-10-02T19:27:53.910Z,14.00
2022-10-02T19:30:26.845Z,14.90
2022-10-02T19:33:03.862Z,11.80
2022-10-02T19:35:40.900Z,11.60
2022-10-02T19:38:33.277Z,9.70
2022-10-02T19:41:10.375Z,10.30
2022-10-02T19:44:00.880Z,14.10
2022-10-02T19:46:53.329Z,15.60
2022-10-02T19:49:31.028Z,10.70
2022-10-02T19:51:58.747Z,12.30
2022-10-02T19:54:36.171Z,10.60
2022-10-02T19:57:15.830Z,10.70
2022-10-02T19:59:52.971Z,11.20
2022-10-02T20:02:32.451Z,13.00
2022-10-02T20:05:07.127Z,10.00
2022-10-02T20:07:39.297Z,9.00
2022-10-02T20:10:37.244Z,16.20
2022-10-02T20:13:40.475Z,9.20
2022-10-02T20:16:42.770Z,10.30
2022-10-02T20:19:21.330Z,11.50
2022-10-02T20:21:55.172Z,9.40
2022-10-02T20:24:51.398Z,7.90
2022-10-02T20:27:36.331Z,9.40
2022-10-02T20:30:17.148Z,24.70
2022-10-02T20:33:26.277Z,8.30
2022-10-02T20:36:27.997Z,8.60
2022-10-02T20:38:55.579Z,10.00
2022-10-02T20:41:29.155Z,9.10
2022-10-02T20:44:04.437Z,11.30
2022-10-02T20:47:09.735Z,9.00
2022-10-02T20:50:19.802Z,11.80
2022-10-02T20:53:11.432Z,12.40
2022-10-02T20:56:02.790Z,11.70
2022-10-02T20:59:24.277Z,10.30
2022-10-02T21:02:16.343Z,12.00
2022-10-02T21:04:49.957Z,10.70
2022-10-02T21:07:39.264Z,9.80
2022-10-02T21:10:41.015Z,10.40
2022-10-02T21:13:57.632Z,10.30
2022-10-02T21:17:00.515Z,9.10
2022-10-02T21:20:50.195Z,11.10
2022-10-02T21:23:48.333Z,9.80
2022-10-02T21:26:50.604Z,9.90
2022-10-02T21:29:55.260Z,11.20
2022-10-02T21:33:04.948Z,9.70
2022-10-02T21:36:04.005Z,9.90
2022-10-02T21:39:26.343Z,12.60
2022-10-02T21:42:41.832Z,11.80
2022-10-02T21:46:06.341Z,7.80
2022-10-02T21:49:05.181Z,9.70
2022-10-02T21:51:41.960Z,12.10
2022-10-02T21:54:56.047Z,11.80
2022-10-02T21:58:20.717Z,10.10
2022-10-02T22:01:24.303Z,7.50
2022-10-02T22:04:25.078Z,8.30
2022-10-02T22:07:15.281Z,10.70
2022-10-02T22:10:06.901Z,9.50
2022-10-02T22:13:27.760Z,9.00
2022-10-02T22:16:04.365Z,8.70
2022-10-02T22:18:46.766Z,12.10
2022-10-02T22:21:38.641Z,9.60
2022-10-02T22:24:40.612Z,8.70
2022-10-02T22:27:55.767Z,10.10
2022-10-02T22:30:30.231Z,7.70
2022-10-02T22:33:21.425Z,10.90
2022-10-02T22:36:16.739Z,11.50
2022-10-02T22:38:53.285Z,7.70
2022-10-02T22:41:59.514Z,7.10
2022-10-02T22:45:00.493Z,9.60
2022-10-02T22:48:07.283Z,7.00
2022-10-02T22:51:22.580Z,7.10
2022-10-02T22:54:14.768Z,10.60
2022-10-02T22:57:14.243Z,7.60
2022-10-02T23:00:15.399Z,11.50
2022-10-02T23:03:05.336Z,8.60
2022-10-02T23:05:47.523Z,9.70
2022-10-02T23:08:46.749Z,8.70
2022-10-02T23:11:22.892Z,10.50
2022-10-02T23:14:01.635Z,10.30
2022-10-02T23:17:10.960Z,10.40
2022-10-02T23:19:54.691Z,10.00
2022-10-02T23:22:55.239Z,9.50
2022-10-02T23:25:50.123Z,9.20
2022-10-02T23:28:30.304Z,9.00
2022-10-02T23:31:18.693Z,10.50
2022-10-02T23:34:44.477Z,7.80
2022-10-02T23:37:37.715Z,10.80
2022-10-02T23:40:05.183Z,8.40
2022-10-02T23:42:44.165Z,10.30
2022-10-02T23:45:29.877Z,8.90
2022-10-02T23:48:07.186Z,8.40
2022-10-02T23:50:49.668Z,12.10
2022-10-02T23:53:48.382Z,7.10
2022-10-02T23:56:58.593Z,9.60
